Welcome to Northern Hawkes Bay. New Zealand.
PWS Header
      nz Flag



Hit Counter


W3C Valid W3C Valid logo


    Wairoa

Select any of the Stations below to visit their websites.










Historic Data from Weather Underground
Select the location of interest below. Wairoa is the default. Please have patience, this Data is slow to load in.
Northern Hawkes Bay Historical Data
Daily Summary for January 5, 2017 Units:  Metric    English   Both
« Previous Day
Next Day »
Daily Weekly Monthly Yearly Custom
  High: Low: Average:
Temperature: 19.0 °C 6.7 °C 13.7 °C
Dew Point: 9.3 °C 1.9 °C 6.1 °C
Humidity: 86% 38% 62%
Wind Speed: 24.5km/h 0.0km/h 9km/h
Wind Gust: 42.8km/h - -
Wind- - WSW
Pressure: 1020.2 hPa 1014.4 hPa -
Precipitation: 0.0 mm    
Historical Graphs
 
 
Tabular Data for January 5, 2017
Time Temperature Dew Point Pressure Wind Wind Speed Wind Gust Humidity Rainfall Rate (Hourly) solar
00:02 11.5 °C 6.8 °C 1015.1 hPa SW 14.8 km/h 33.1 km/h 73% 0.0 mm 0 W/m2
00:07 11.4 °C 6.6 °C 1015.5 hPa WSW 20.9 km/h 35.6 km/h 72% 0.0 mm 0 W/m2
00:12 11.4 °C 6.7 °C 1015.5 hPa WSW 18.3 km/h 35.6 km/h 73% 0.0 mm 0 W/m2
00:17 11.4 °C 6.7 °C 1015.5 hPa SW 17.2 km/h 31.7 km/h 73% 0.0 mm 0 W/m2
00:22 11.4 °C 6.7 °C 1015.1 hPa SW 14.8 km/h 28.0 km/h 73% 0.0 mm 0 W/m2
00:27 11.3 °C 6.4 °C 1015.5 hPa SW 15.8 km/h 25.6 km/h 72% 0.0 mm 0 W/m2
00:32 11.3 °C 6.4 °C 1015.5 hPa SW 13.4 km/h 23.3 km/h 72% 0.0 mm 0 W/m2
00:37 11.3 °C 6.4 °C 1015.5 hPa WSW 12.2 km/h 24.5 km/h 72% 0.0 mm 0 W/m2
00:42 11.3 °C 6.4 °C 1015.5 hPa WSW 6.1 km/h 24.5 km/h 72% 0.0 mm 0 W/m2
00:47 11.3 °C 6.2 °C 1015.5 hPa WSW 3.5 km/h 24.5 km/h 71% 0.0 mm 0 W/m2
00:52 11.3 °C 6.2 °C 1015.5 hPa WSW 12.2 km/h 17.2 km/h 71% 0.0 mm 0 W/m2
00:57 11.3 °C 6.2 °C 1015.5 hPa West 5.0 km/h 17.2 km/h 71% 0.0 mm 0 W/m2
01:02 11.2 °C 5.9 °C 1015.5 hPa West 5.0 km/h 17.2 km/h 70% 0.0 mm 0 W/m2
01:07 11.1 °C 5.8 °C 1015.5 hPa West 6.1 km/h 13.4 km/h 70% 0.0 mm 0 W/m2
01:12 11.1 °C 5.8 °C 1015.1 hPa West 5.0 km/h 14.8 km/h 70% 0.0 mm 0 W/m2
01:17 11.0 °C 6.2 °C 1015.5 hPa WNW 3.5 km/h 14.8 km/h 72% 0.0 mm 0 W/m2
01:22 10.9 °C 6.4 °C 1015.1 hPa NW 2.6 km/h 9.7 km/h 74% 0.0 mm 0 W/m2
01:27 10.7 °C 6.3 °C 1015.5 hPa NW 3.5 km/h 11.1 km/h 74% 0.0 mm 0 W/m2
01:32 10.6 °C 5.9 °C 1015.1 hPa NW 6.1 km/h 11.1 km/h 73% 0.0 mm 0 W/m2
01:37 10.5 °C 5.9 °C 1015.1 hPa NW 2.6 km/h 9.7 km/h 73% 0.0 mm 0 W/m2
01:42 10.3 °C 5.7 °C 1015.1 hPa NW 2.6 km/h 8.7 km/h 73% 0.0 mm 0 W/m2
01:47 10.2 °C 5.6 °C 1014.8 hPa NW 3.5 km/h 8.7 km/h 73% 0.0 mm 0 W/m2
01:52 10.1 °C 5.5 °C 1015.1 hPa WNW 3.5 km/h 7.2 km/h 73% 0.0 mm 0 W/m2
01:57 10.0 °C 5.4 °C 1015.1 hPa WNW 3.5 km/h 7.2 km/h 73% 0.0 mm 0 W/m2
02:02 9.8 °C 5.4 °C 1015.1 hPa WNW 3.5 km/h 6.1 km/h 74% 0.0 mm 0 W/m2
02:07 9.7 °C 5.5 °C 1014.8 hPa NW 2.6 km/h 6.1 km/h 75% 0.0 mm 0 W/m2
02:12 9.6 °C 5.4 °C 1014.8 hPa NW 2.6 km/h 5.0 km/h 75% 0.0 mm 0 W/m2
02:17 9.6 °C 5.4 °C 1014.8 hPa NW 2.6 km/h 5.0 km/h 75% 0.0 mm 0 W/m2
02:22 9.4 °C 5.2 °C 1015.1 hPa NW 3.5 km/h 6.1 km/h 75% 0.0 mm 0 W/m2
02:27 9.4 °C 5.4 °C 1014.8 hPa NW 2.6 km/h 7.2 km/h 76% 0.0 mm 0 W/m2
02:32 9.3 °C 5.1 °C 1014.8 hPa NW 2.6 km/h 7.2 km/h 75% 0.0 mm 0 W/m2
02:37 9.3 °C 5.1 °C 1014.8 hPa NW 2.6 km/h 6.1 km/h 75% 0.0 mm 0 W/m2
02:42 9.2 °C 5.0 °C 1014.8 hPa NW 2.6 km/h 6.1 km/h 75% 0.0 mm 0 W/m2
02:47 9.0 °C 5.0 °C 1014.8 hPa NW 2.6 km/h 6.1 km/h 76% 0.0 mm 0 W/m2
02:52 9.0 °C 5.2 °C 1014.4 hPa NW 3.5 km/h 6.1 km/h 77% 0.0 mm 0 W/m2
02:57 8.9 °C 5.3 °C 1014.4 hPa NW 3.5 km/h 6.1 km/h 78% 0.0 mm 0 W/m2
03:02 8.9 °C 5.3 °C 1014.4 hPa NNW 2.6 km/h 6.1 km/h 78% 0.0 mm 0 W/m2
03:07 8.8 °C 5.2 °C 1014.4 hPa NNW 3.5 km/h 6.1 km/h 78% 0.0 mm 0 W/m2
03:12 8.8 °C 5.2 °C 1014.4 hPa NNW 5.0 km/h 7.2 km/h 78% 0.0 mm 0 W/m2
03:17 8.8 °C 5.0 °C 1014.4 hPa NNW 3.5 km/h 7.2 km/h 77% 0.0 mm 0 W/m2
03:22 8.8 °C 5.0 °C 1014.4 hPa NNW 2.6 km/h 9.7 km/h 77% 0.0 mm 0 W/m2
03:27 8.9 °C 4.9 °C 1014.4 hPa NNW 2.6 km/h 9.7 km/h 76% 0.0 mm 0 W/m2
03:32 8.8 °C 4.6 °C 1014.4 hPa NNW 3.5 km/h 7.2 km/h 75% 0.0 mm 0 W/m2
03:37 8.8 °C 4.6 °C 1014.4 hPa NNW 3.5 km/h 8.7 km/h 75% 0.0 mm 0 W/m2
03:42 8.7 °C 4.7 °C 1014.4 hPa NNW 5.0 km/h 8.7 km/h 76% 0.0 mm 0 W/m2
03:47 8.6 °C 4.6 °C 1014.4 hPa NW 1.1 km/h 9.7 km/h 76% 0.0 mm 0 W/m2
03:52 8.4 °C 4.4 °C 1014.4 hPa NW 3.5 km/h 9.7 km/h 76% 0.0 mm 0 W/m2
03:57 8.3 °C 4.5 °C 1014.4 hPa NW 5.0 km/h 7.2 km/h 77% 0.0 mm 0 W/m2
04:02 8.3 °C 4.5 °C 1014.4 hPa NNW 2.6 km/h 7.2 km/h 77% 0.0 mm 0 W/m2
04:07 8.2 °C 4.4 °C 1014.4 hPa NNW 3.5 km/h 7.2 km/h 77% 0.0 mm 0 W/m2
04:12 8.2 °C 4.4 °C 1014.4 hPa NW 3.5 km/h 7.2 km/h 77% 0.0 mm 0 W/m2
04:17 8.2 °C 4.4 °C 1014.4 hPa NW 2.6 km/h 7.2 km/h 77% 0.0 mm 0 W/m2
04:22 8.1 °C 4.3 °C 1014.4 hPa NW 2.6 km/h 6.1 km/h 77% 0.0 mm 0 W/m2
04:27 7.9 °C 4.1 °C 1014.8 hPa NW 1.1 km/h 5.0 km/h 77% 0.0 mm 0 W/m2
04:32 7.7 °C 4.1 °C 1014.8 hPa NNW 2.6 km/h 5.0 km/h 78% 0.0 mm 0 W/m2
04:37 7.6 °C 4.0 °C 1014.8 hPa Calm   5.0 km/h 78% 0.0 mm 0 W/m2
04:42 7.5 °C 4.1 °C 1014.8 hPa NNW 1.1 km/h 5.0 km/h 79% 0.0 mm 0 W/m2
04:47 7.4 °C 4.2 °C 1014.8 hPa North 1.1 km/h 3.5 km/h 80% 0.0 mm 0 W/m2
04:52 7.3 °C 4.1 °C 1015.1 hPa Calm   3.5 km/h 80% 0.0 mm 0 W/m2
04:57 7.3 °C 4.3 °C 1015.1 hPa Calm   3.5 km/h 81% 0.0 mm 0 W/m2
05:02 7.3 °C 4.1 °C 1015.1 hPa NE 1.1 km/h 3.5 km/h 80% 0.0 mm 0 W/m2
05:07 7.2 °C 4.0 °C 1015.1 hPa NNE 1.1 km/h 3.5 km/h 80% 0.0 mm 0 W/m2
05:12 7.4 °C 4.3 °C 1015.1 hPa NNW 2.6 km/h 6.1 km/h 81% 0.0 mm 0 W/m2
05:17 7.4 °C 4.3 °C 1015.1 hPa NW 2.6 km/h 6.1 km/h 81% 0.0 mm 0 W/m2
05:22 7.3 °C 4.1 °C 1015.1 hPa NW 2.6 km/h 6.1 km/h 80% 0.0 mm 0 W/m2
05:27 7.2 °C 4.2 °C 1015.1 hPa NW 3.5 km/h 6.1 km/h 81% 0.0 mm 0 W/m2
05:32 7.1 °C 4.1 °C 1015.1 hPa NW 3.5 km/h 6.1 km/h 81% 0.0 mm 0 W/m2
05:37 7.0 °C 3.9 °C 1015.5 hPa NW 3.5 km/h 7.2 km/h 81% 0.0 mm 0 W/m2
05:42 7.0 °C 4.2 °C 1015.5 hPa NW 5.0 km/h 7.2 km/h 82% 0.0 mm 0 W/m2
05:47 6.9 °C 4.4 °C 1015.1 hPa NW 3.5 km/h 7.2 km/h 84% 0.0 mm 1 W/m2
05:52 6.8 °C 4.3 °C 1015.5 hPa NNW 2.6 km/h 7.2 km/h 84% 0.0 mm 3 W/m2
05:57 6.7 °C 4.3 °C 1015.5 hPa NNW 3.5 km/h 6.1 km/h 85% 0.0 mm 5 W/m2
06:02 6.7 °C 4.5 °C 1015.5 hPa NNW 3.5 km/h 6.1 km/h 86% 0.0 mm 8 W/m2
06:07 6.7 °C 4.5 °C 1015.5 hPa NNW 2.6 km/h 6.1 km/h 86% 0.0 mm 11 W/m2
06:12 6.7 °C 4.5 °C 1015.5 hPa NNW 3.5 km/h 6.1 km/h 86% 0.0 mm 14 W/m2
06:17 6.8 °C 4.6 °C 1015.5 hPa NNW 5.0 km/h 7.2 km/h 86% 0.0 mm 18 W/m2
06:22 6.9 °C 4.7 °C 1015.5 hPa NNW 2.6 km/h 7.2 km/h 86% 0.0 mm 21 W/m2
06:27 7.2 °C 4.7 °C 1015.5 hPa NNW 3.5 km/h 7.2 km/h 84% 0.0 mm 25 W/m2
06:33 7.5 °C 5.0 °C 1015.5 hPa NNW 3.5 km/h 7.2 km/h 84% 0.0 mm 31 W/m2
06:38 7.7 °C 5.0 °C 1015.5 hPa NNW 1.1 km/h 7.2 km/h 83% 0.0 mm 34 W/m2
06:43 8.2 °C 5.5 °C 1015.5 hPa NNW 2.6 km/h 6.1 km/h 83% 0.0 mm 64 W/m2
06:48 8.8 °C 5.6 °C 1015.5 hPa North 3.5 km/h 8.7 km/h 80% 0.0 mm 74 W/m2
06:53 9.3 °C 5.3 °C 1015.8 hPa North 3.5 km/h 8.7 km/h 76% 0.0 mm 85 W/m2
06:58 9.8 °C 5.6 °C 1015.8 hPa North 3.5 km/h 8.7 km/h 75% 0.0 mm 93 W/m2
07:03 10.3 °C 5.3 °C 1016.1 hPa North 5.0 km/h 8.7 km/h 71% 0.0 mm 108 W/m2
07:08 10.6 °C 5.2 °C 1016.1 hPa North 2.6 km/h 8.7 km/h 69% 0.0 mm 113 W/m2
07:13 10.7 °C 4.8 °C 1015.8 hPa North 6.1 km/h 7.2 km/h 67% 0.0 mm 131 W/m2
07:18 10.7 °C 4.6 °C 1016.1 hPa NNW 5.0 km/h 11.1 km/h 66% 0.0 mm 144 W/m2
07:23 10.8 °C 4.7 °C 1016.1 hPa NW 5.0 km/h 11.1 km/h 66% 0.0 mm 157 W/m2
07:28 11.1 °C 4.6 °C 1016.1 hPa NNW 5.0 km/h 9.7 km/h 64% 0.0 mm 172 W/m2
07:33 11.4 °C 5.1 °C 1016.1 hPa NNW 5.0 km/h 9.7 km/h 65% 0.0 mm 120 W/m2
07:38 11.6 °C 4.8 °C 1016.1 hPa NNW 6.1 km/h 11.1 km/h 63% 0.0 mm 194 W/m2
07:43 11.8 °C 5.2 °C 1016.1 hPa NNW 6.1 km/h 12.2 km/h 64% 0.0 mm 211 W/m2
07:48 12.0 °C 4.9 °C 1016.1 hPa NNW 8.7 km/h 12.2 km/h 62% 0.0 mm 228 W/m2
07:53 12.3 °C 5.2 °C 1016.5 hPa NNW 3.5 km/h 12.2 km/h 62% 0.0 mm 237 W/m2
07:58 12.6 °C 5.3 °C 1016.5 hPa NNW 7.2 km/h 12.2 km/h 61% 0.0 mm 255 W/m2
08:03 13.1 °C 5.3 °C 1016.5 hPa NW 8.7 km/h 12.2 km/h 59% 0.0 mm 270 W/m2
08:08 13.3 °C 5.2 °C 1016.5 hPa NNW 5.0 km/h 12.2 km/h 58% 0.0 mm 278 W/m2
08:13 13.7 °C 5.3 °C 1016.5 hPa NW 7.2 km/h 12.2 km/h 57% 0.0 mm 292 W/m2
08:18 14.5 °C 5.8 °C 1016.5 hPa West 1.1 km/h 9.7 km/h 56% 0.0 mm 319 W/m2
08:23 14.9 °C 4.0 °C 1016.8 hPa West 17.2 km/h 21.9 km/h 48% 0.0 mm 331 W/m2
08:28 14.7 °C 3.8 °C 1016.5 hPa WSW 15.8 km/h 21.9 km/h 48% 0.0 mm 339 W/m2
08:33 14.7 °C 3.2 °C 1016.8 hPa SW 14.8 km/h 23.3 km/h 46% 0.0 mm 357 W/m2
08:38 15.0 °C 3.8 °C 1016.8 hPa SW 14.8 km/h 23.3 km/h 47% 0.0 mm 376 W/m2
08:43 15.1 °C 3.6 °C 1016.8 hPa SW 13.4 km/h 23.3 km/h 46% 0.0 mm 405 W/m2
08:48 15.0 °C 2.8 °C 1016.8 hPa SW 15.8 km/h 25.6 km/h 44% 0.0 mm 412 W/m2
08:53 15.0 °C 2.8 °C 1016.8 hPa WSW 12.2 km/h 25.6 km/h 44% 0.0 mm 418 W/m2
08:58 15.0 °C 2.8 °C 1016.8 hPa SW 14.8 km/h 29.4 km/h 44% 0.0 mm 438 W/m2
09:03 15.2 °C 2.4 °C 1017.2 hPa SW 17.2 km/h 34.3 km/h 42% 0.0 mm 456 W/m2
09:08 15.3 °C 3.1 °C 1017.2 hPa SW 15.8 km/h 34.3 km/h 44% 0.0 mm 472 W/m2
09:13 15.3 °C 2.4 °C 1017.2 hPa SW 15.8 km/h 31.7 km/h 42% 0.0 mm 494 W/m2
09:18 15.4 °C 2.9 °C 1017.2 hPa SSW 24.5 km/h 31.7 km/h 43% 0.0 mm 505 W/m2
09:23 15.3 °C 2.8 °C 1017.2 hPa SSW 24.5 km/h 42.8 km/h 43% 0.0 mm 523 W/m2
09:28 15.4 °C 3.8 °C 1017.2 hPa SSW 19.5 km/h 42.8 km/h 46% 0.0 mm 561 W/m2
09:33 15.5 °C 3.3 °C 1017.5 hPa SSW 17.2 km/h 40.4 km/h 44% 0.0 mm 564 W/m2
09:38 15.6 °C 3.7 °C 1017.5 hPa SW 13.4 km/h 33.1 km/h 45% 0.0 mm 596 W/m2
09:43 15.8 °C 3.9 °C 1017.5 hPa WSW 20.9 km/h 33.1 km/h 45% 0.0 mm 616 W/m2
09:48 15.5 °C 3.9 °C 1017.8 hPa West 15.8 km/h 33.1 km/h 46% 0.0 mm 636 W/m2
09:53 15.6 °C 4.0 °C 1017.8 hPa WSW 21.9 km/h 31.7 km/h 46% 0.0 mm 652 W/m2
09:58 15.5 °C 3.0 °C 1017.5 hPa SW 17.2 km/h 31.7 km/h 43% 0.0 mm 660 W/m2
10:04 15.6 °C 3.1 °C 1017.8 hPa SW 9.7 km/h 28.0 km/h 43% 0.0 mm 682 W/m2
10:09 15.7 °C 2.8 °C 1018.2 hPa SW 17.2 km/h 33.1 km/h 42% 0.0 mm 697 W/m2
10:14 15.6 °C 3.1 °C 1017.8 hPa SW 20.9 km/h 33.1 km/h 43% 0.0 mm 710 W/m2
10:19 15.9 °C 2.7 °C 1017.8 hPa WSW 15.8 km/h 30.6 km/h 41% 0.0 mm 721 W/m2
10:24 16.0 °C 2.8 °C 1017.8 hPa SW 13.4 km/h 30.6 km/h 41% 0.0 mm 737 W/m2
10:29 16.0 °C 3.1 °C 1017.8 hPa SSW 13.4 km/h 29.4 km/h 42% 0.0 mm 750 W/m2
10:34 16.4 °C 2.1 °C 1017.8 hPa SSW 15.8 km/h 29.4 km/h 38% 0.0 mm 764 W/m2
10:39 16.4 °C 2.4 °C 1017.5 hPa SW 14.8 km/h 24.5 km/h 39% 0.0 mm 776 W/m2
10:44 16.2 °C 2.2 °C 1017.8 hPa SSW 12.2 km/h 24.5 km/h 39% 0.0 mm 784 W/m2
10:49 15.9 °C 1.9 °C 1017.8 hPa SSW 14.8 km/h 24.5 km/h 39% 0.0 mm 796 W/m2
10:54 16.0 °C 2.1 °C 1017.8 hPa SW 11.1 km/h 23.3 km/h 39% 0.0 mm 807 W/m2
10:59 16.3 °C 2.7 °C 1017.8 hPa SSW 14.8 km/h 23.3 km/h 40% 0.0 mm 822 W/m2
11:04 16.3 °C 3.1 °C 1017.8 hPa SSW 8.7 km/h 23.3 km/h 41% 0.0 mm 831 W/m2
11:09 16.4 °C 3.4 °C 1017.8 hPa SSW 14.8 km/h 23.3 km/h 42% 0.0 mm 839 W/m2
11:14 16.5 °C 3.6 °C 1017.5 hPa SSW 13.4 km/h 24.5 km/h 42% 0.0 mm 846 W/m2
11:19 16.7 °C 2.7 °C 1017.8 hPa SW 11.1 km/h 24.5 km/h 39% 0.0 mm 858 W/m2
11:24 16.7 °C 2.7 °C 1017.8 hPa SW 12.2 km/h 25.6 km/h 39% 0.0 mm 862 W/m2
11:30 16.5 °C 2.2 °C 1017.5 hPa SSW 19.5 km/h 28.0 km/h 38% 0.0 mm 867 W/m2
11:35 16.4 °C 2.4 °C 1017.5 hPa SSW 18.3 km/h 28.0 km/h 39% 0.0 mm 870 W/m2
11:40 16.7 °C 3.4 °C 1017.5 hPa SSW 12.2 km/h 24.5 km/h 41% 0.0 mm 876 W/m2
11:47 16.8 °C 3.8 °C 1017.5 hPa SSW 14.8 km/h 20.9 km/h 42% 0.0 mm 887 W/m2
12:03 16.8 °C 4.5 °C 1017.8 hPa SSW 14.8 km/h 20.9 km/h 44% 0.0 mm 894 W/m2
12:08 16.9 °C 4.2 °C 1017.8 hPa SSW 13.4 km/h 20.9 km/h 43% 0.0 mm 897 W/m2
12:14 16.8 °C 4.2 °C 1017.8 hPa South 13.4 km/h 20.9 km/h 43% 0.0 mm 901 W/m2
12:19 16.7 °C 4.1 °C 1018.2 hPa South 14.8 km/h 20.9 km/h 43% 0.0 mm 903 W/m2
12:24 16.7 °C 4.4 °C 1017.8 hPa South 14.8 km/h 20.9 km/h 44% 0.0 mm 904 W/m2
12:29 16.9 °C 4.6 °C 1018.2 hPa South 12.2 km/h 18.3 km/h 44% 0.0 mm 904 W/m2
12:34 17.1 °C 4.4 °C 1017.8 hPa SSW 12.2 km/h 17.2 km/h 43% 0.0 mm 908 W/m2
12:39 17.2 °C 4.8 °C 1017.8 hPa SW 13.4 km/h 17.2 km/h 44% 0.0 mm 908 W/m2
12:44 17.1 °C 4.1 °C 1017.8 hPa SSW 13.4 km/h 19.5 km/h 42% 0.0 mm 906 W/m2
12:49 17.1 °C 3.7 °C 1018.2 hPa SSW 9.7 km/h 20.9 km/h 41% 0.0 mm 908 W/m2
12:54 17.2 °C 4.2 °C 1018.2 hPa SSW 8.7 km/h 23.3 km/h 42% 0.0 mm 903 W/m2
12:59 17.4 °C 4.4 °C 1018.2 hPa SSW 14.8 km/h 23.3 km/h 42% 0.0 mm 901 W/m2
13:04 17.7 °C 4.9 °C 1018.2 hPa South 13.4 km/h 23.3 km/h 43% 0.0 mm 902 W/m2
13:10 17.4 °C 4.7 °C 1018.2 hPa SSW 14.8 km/h 21.9 km/h 43% 0.0 mm 900 W/m2
13:16 17.6 °C 5.2 °C 1018.2 hPa SSW 9.7 km/h 20.9 km/h 44% 0.0 mm 898 W/m2
13:21 18.0 °C 5.2 °C 1017.8 hPa SSW 9.7 km/h 23.3 km/h 43% 0.0 mm 897 W/m2
13:26 17.8 °C 5.4 °C 1018.2 hPa SSW 14.8 km/h 23.3 km/h 44% 0.0 mm 895 W/m2
13:31 18.1 °C 6.0 °C 1018.2 hPa SSW 9.7 km/h 21.9 km/h 45% 0.0 mm 890 W/m2
13:36 18.3 °C 5.8 °C 1017.8 hPa SSW 11.1 km/h 21.9 km/h 44% 0.0 mm 886 W/m2
13:41 18.2 °C 6.1 °C 1018.2 hPa SSW 14.8 km/h 21.9 km/h 45% 0.0 mm 884 W/m2
13:46 18.0 °C 5.6 °C 1017.8 hPa SSW 17.2 km/h 25.6 km/h 44% 0.0 mm 880 W/m2
13:51 18.3 °C 5.5 °C 1017.8 hPa SSW 14.8 km/h 25.6 km/h 43% 0.0 mm 874 W/m2
13:56 18.3 °C 4.1 °C 1017.8 hPa SSW 14.8 km/h 27.0 km/h 39% 0.0 mm 871 W/m2
14:01 18.5 °C 5.3 °C 1017.8 hPa SSW 13.4 km/h 27.0 km/h 42% 0.0 mm 913 W/m2
14:06 18.2 °C 4.7 °C 1017.8 hPa SSW 17.2 km/h 27.0 km/h 41% 0.0 mm 889 W/m2
14:11 18.4 °C 4.9 °C 1017.8 hPa SSW 17.2 km/h 27.0 km/h 41% 0.0 mm 878 W/m2
14:16 18.2 °C 4.4 °C 1017.8 hPa SSW 12.2 km/h 28.0 km/h 40% 0.0 mm 849 W/m2
14:21 18.4 °C 4.9 °C 1017.8 hPa SSW 18.3 km/h 28.0 km/h 41% 0.0 mm 851 W/m2
14:26 18.4 °C 5.3 °C 1017.8 hPa SSW 13.4 km/h 27.0 km/h 42% 0.0 mm 822 W/m2
14:31 18.7 °C 5.9 °C 1017.5 hPa South 14.8 km/h 27.0 km/h 43% 0.0 mm 828 W/m2
14:36 18.5 °C 5.0 °C 1017.5 hPa South 18.3 km/h 28.0 km/h 41% 0.0 mm 828 W/m2
14:41 19.0 °C 5.4 °C 1017.8 hPa SSW 18.3 km/h 28.0 km/h 41% 0.0 mm 823 W/m2
14:47 19.0 °C 5.1 °C 1017.5 hPa SSW 13.4 km/h 24.5 km/h 40% 0.0 mm 790 W/m2
14:52 18.9 °C 5.7 °C 1017.8 hPa SSW 9.7 km/h 24.5 km/h 42% 0.0 mm 738 W/m2
14:57 19.0 °C 6.5 °C 1017.8 hPa South 20.9 km/h 28.0 km/h 44% 0.0 mm 782 W/m2
15:02 18.6 °C 7.1 °C 1017.8 hPa South 12.2 km/h 28.0 km/h 47% 0.0 mm 785 W/m2
15:07 18.1 °C 6.9 °C 1017.8 hPa South 15.8 km/h 29.4 km/h 48% 0.0 mm 771 W/m2
15:12 17.8 °C 6.9 °C 1017.8 hPa South 21.9 km/h 33.1 km/h 49% 0.0 mm 757 W/m2
15:17 17.4 °C 8.3 °C 1018.2 hPa South 15.8 km/h 33.1 km/h 55% 0.0 mm 730 W/m2
15:22 17.6 °C 8.4 °C 1018.2 hPa South 17.2 km/h 33.1 km/h 55% 0.0 mm 735 W/m2
15:27 17.6 °C 8.4 °C 1018.2 hPa South 14.8 km/h 27.0 km/h 55% 0.0 mm 730 W/m2
15:32 17.9 °C 9.0 °C 1018.2 hPa South 13.4 km/h 27.0 km/h 56% 0.0 mm 663 W/m2
15:37 17.5 °C 8.1 °C 1018.2 hPa South 23.3 km/h 39.3 km/h 54% 0.0 mm 710 W/m2
15:42 17.2 °C 8.1 °C 1018.2 hPa South 13.4 km/h 39.3 km/h 55% 0.0 mm 694 W/m2
15:48 16.9 °C 8.1 °C 1018.5 hPa South 18.3 km/h 33.1 km/h 56% 0.0 mm 679 W/m2
15:53 16.8 °C 8.7 °C 1018.5 hPa South 18.3 km/h 33.1 km/h 59% 0.0 mm 669 W/m2
15:58 16.8 °C 8.2 °C 1018.5 hPa South 15.8 km/h 29.4 km/h 57% 0.0 mm 648 W/m2
16:03 17.2 °C 8.1 °C 1018.5 hPa South 17.2 km/h 31.7 km/h 55% 0.0 mm 647 W/m2
16:08 17.2 °C 8.3 °C 1018.5 hPa South 17.2 km/h 31.7 km/h 56% 0.0 mm 624 W/m2
16:13 17.4 °C 8.6 °C 1018.2 hPa South 13.4 km/h 24.5 km/h 56% 0.0 mm 630 W/m2
16:18 17.3 °C 7.9 °C 1018.5 hPa South 15.8 km/h 28.0 km/h 54% 0.0 mm 597 W/m2
16:23 17.2 °C 7.8 °C 1018.5 hPa South 14.8 km/h 28.0 km/h 54% 0.0 mm 595 W/m2
16:28 17.1 °C 8.0 °C 1018.5 hPa South 14.8 km/h 24.5 km/h 55% 0.0 mm 583 W/m2
16:33 17.3 °C 7.9 °C 1018.5 hPa South 12.2 km/h 24.5 km/h 54% 0.0 mm 579 W/m2
16:38 17.7 °C 8.0 °C 1018.5 hPa South 15.8 km/h 25.6 km/h 53% 0.0 mm 492 W/m2
16:43 17.6 °C 8.2 °C 1018.5 hPa SSE 11.1 km/h 25.6 km/h 54% 0.0 mm 501 W/m2
16:48 17.5 °C 7.6 °C 1018.5 hPa South 15.8 km/h 23.3 km/h 52% 0.0 mm 497 W/m2
16:53 17.1 °C 8.8 °C 1018.5 hPa South 15.8 km/h 24.5 km/h 58% 0.0 mm 504 W/m2
16:58 17.2 °C 8.9 °C 1018.5 hPa South 18.3 km/h 24.5 km/h 58% 0.0 mm 530 W/m2
17:03 17.5 °C 8.4 °C 1018.5 hPa South 12.2 km/h 24.5 km/h 55% 0.0 mm 497 W/m2
17:08 17.3 °C 8.4 °C 1018.5 hPa South 13.4 km/h 23.3 km/h 56% 0.0 mm 409 W/m2
17:13 17.0 °C 7.9 °C 1018.5 hPa South 14.8 km/h 23.3 km/h 55% 0.0 mm 445 W/m2
17:18 17.2 °C 7.8 °C 1018.5 hPa South 14.8 km/h 23.3 km/h 54% 0.0 mm 439 W/m2
17:23 17.1 °C 8.3 °C 1018.5 hPa South 17.2 km/h 24.5 km/h 56% 0.0 mm 494 W/m2
17:28 17.2 °C 8.6 °C 1018.8 hPa SSW 12.2 km/h 24.5 km/h 57% 0.0 mm 226 W/m2
17:33 17.2 °C 8.6 °C 1018.8 hPa SSW 15.8 km/h 24.5 km/h 57% 0.0 mm 166 W/m2
17:38 16.6 °C 8.3 °C 1018.5 hPa SSW 11.1 km/h 23.3 km/h 58% 0.0 mm 380 W/m2
17:43 16.9 °C 8.3 °C 1018.5 hPa SSW 11.1 km/h 24.5 km/h 57% 0.0 mm 394 W/m2
17:48 16.8 °C 8.2 °C 1018.5 hPa South 19.5 km/h 25.6 km/h 57% 0.0 mm 174 W/m2
17:53 16.3 °C 8.5 °C 1018.5 hPa South 11.1 km/h 25.6 km/h 60% 0.0 mm 320 W/m2
17:58 16.4 °C 8.6 °C 1018.5 hPa South 9.7 km/h 24.5 km/h 60% 0.0 mm 198 W/m2
18:03 16.2 °C 8.4 °C 1018.8 hPa South 14.8 km/h 21.9 km/h 60% 0.0 mm 160 W/m2
18:08 15.8 °C 8.8 °C 1018.5 hPa SSE 11.1 km/h 21.9 km/h 63% 0.0 mm 146 W/m2
18:13 15.7 °C 8.7 °C 1018.5 hPa South 15.8 km/h 21.9 km/h 63% 0.0 mm 142 W/m2
18:18 15.4 °C 8.4 °C 1018.8 hPa South 11.1 km/h 25.6 km/h 63% 0.0 mm 112 W/m2
18:23 15.4 °C 8.6 °C 1018.8 hPa South 14.8 km/h 25.6 km/h 64% 0.0 mm 87 W/m2
18:28 15.2 °C 8.7 °C 1018.8 hPa South 12.2 km/h 18.3 km/h 65% 0.0 mm 134 W/m2
18:33 15.3 °C 8.8 °C 1018.8 hPa South 9.7 km/h 20.9 km/h 65% 0.0 mm 111 W/m2
18:38 15.3 °C 8.6 °C 1018.8 hPa South 9.7 km/h 20.9 km/h 64% 0.0 mm 96 W/m2
18:43 15.2 °C 8.9 °C 1018.8 hPa South 12.2 km/h 18.3 km/h 66% 0.0 mm 104 W/m2
18:48 15.2 °C 9.3 °C 1018.8 hPa SSE 11.1 km/h 18.3 km/h 68% 0.0 mm 96 W/m2
18:53 15.2 °C 9.1 °C 1018.8 hPa SSE 13.4 km/h 17.2 km/h 67% 0.0 mm 93 W/m2
18:58 15.2 °C 9.1 °C 1019.2 hPa South 12.2 km/h 18.3 km/h 67% 0.0 mm 77 W/m2
19:03 15.2 °C 8.7 °C 1018.8 hPa South 13.4 km/h 19.5 km/h 65% 0.0 mm 66 W/m2
19:08 15.2 °C 8.7 °C 1019.2 hPa South 6.1 km/h 19.5 km/h 65% 0.0 mm 59 W/m2
19:13 15.2 °C 8.4 °C 1019.2 hPa South 13.4 km/h 19.5 km/h 64% 0.0 mm 55 W/m2
19:18 15.2 °C 8.7 °C 1018.8 hPa South 11.1 km/h 15.8 km/h 65% 0.0 mm 58 W/m2
19:23 15.2 °C 8.7 °C 1018.8 hPa South 9.7 km/h 15.8 km/h 65% 0.0 mm 50 W/m2
19:28 15.1 °C 8.6 °C 1019.2 hPa South 11.1 km/h 20.9 km/h 65% 0.0 mm 48 W/m2
19:33 15.1 °C 8.6 °C 1019.2 hPa South 9.7 km/h 20.9 km/h 65% 0.0 mm 46 W/m2
19:38 15.0 °C 8.5 °C 1019.2 hPa South 12.2 km/h 19.5 km/h 65% 0.0 mm 42 W/m2
19:43 15.1 °C 8.8 °C 1019.2 hPa South 12.2 km/h 19.5 km/h 66% 0.0 mm 36 W/m2
19:48 15.1 °C 8.6 °C 1019.2 hPa South 7.2 km/h 15.8 km/h 65% 0.0 mm 39 W/m2
19:53 15.0 °C 8.3 °C 1019.5 hPa SSW 11.1 km/h 15.8 km/h 64% 0.0 mm 29 W/m2
19:58 15.0 °C 8.5 °C 1019.5 hPa South 6.1 km/h 14.8 km/h 65% 0.0 mm 24 W/m2
20:03 14.9 °C 8.6 °C 1019.5 hPa South 5.0 km/h 15.8 km/h 66% 0.0 mm 20 W/m2
20:08 14.9 °C 8.8 °C 1019.2 hPa South 3.5 km/h 15.8 km/h 67% 0.0 mm 16 W/m2
20:13 15.0 °C 8.5 °C 1019.5 hPa SSW 8.7 km/h 12.2 km/h 65% 0.0 mm 11 W/m2
20:18 14.9 °C 8.8 °C 1019.5 hPa South 5.0 km/h 12.2 km/h 67% 0.0 mm 9 W/m2
20:24 14.9 °C 8.8 °C 1019.5 hPa South 7.2 km/h 14.8 km/h 67% 0.0 mm 5 W/m2
20:29 14.9 °C 8.6 °C 1019.5 hPa South 6.1 km/h 14.8 km/h 66% 0.0 mm 4 W/m2
20:34 14.9 °C 8.4 °C 1019.5 hPa SSW 7.2 km/h 12.2 km/h 65% 0.0 mm 2 W/m2
20:39 14.9 °C 8.6 °C 1019.5 hPa SSW 3.5 km/h 11.1 km/h 66% 0.0 mm 1 W/m2
20:44 14.9 °C 8.4 °C 1019.5 hPa South 6.1 km/h 11.1 km/h 65% 0.0 mm 0 W/m2
20:49 14.8 °C 8.3 °C 1019.5 hPa South 5.0 km/h 11.1 km/h 65% 0.0 mm 0 W/m2
20:54 14.8 °C 8.5 °C 1019.5 hPa South 6.1 km/h 11.1 km/h 66% 0.0 mm 0 W/m2
20:59 14.8 °C 8.7 °C 1019.5 hPa South 8.7 km/h 14.8 km/h 67% 0.0 mm 0 W/m2
21:04 14.7 °C 8.7 °C 1019.5 hPa South 7.2 km/h 14.8 km/h 67% 0.0 mm 0 W/m2
21:09 14.7 °C 8.7 °C 1019.9 hPa South 5.0 km/h 13.4 km/h 67% 0.0 mm 0 W/m2
21:14 14.6 °C 8.6 °C 1019.5 hPa South 7.2 km/h 13.4 km/h 67% 0.0 mm 0 W/m2
21:19 14.6 °C 8.8 °C 1019.9 hPa South 3.5 km/h 13.4 km/h 68% 0.0 mm 0 W/m2
21:24 14.6 °C 8.8 °C 1019.9 hPa South 5.0 km/h 14.8 km/h 68% 0.0 mm 0 W/m2
21:29 14.6 °C 8.8 °C 1019.9 hPa South 3.5 km/h 14.8 km/h 68% 0.0 mm 0 W/m2
21:34 14.6 °C 8.6 °C 1019.9 hPa South 6.1 km/h 14.8 km/h 67% 0.0 mm 0 W/m2
21:39 14.6 °C 8.6 °C 1019.9 hPa South 5.0 km/h 9.7 km/h 67% 0.0 mm 0 W/m2
21:44 14.6 °C 8.6 °C 1020.2 hPa South 5.0 km/h 9.7 km/h 67% 0.0 mm 0 W/m2
21:49 14.6 °C 8.6 °C 1019.9 hPa South 5.0 km/h 8.7 km/h 67% 0.0 mm 0 W/m2
21:54 14.6 °C 8.6 °C 1020.2 hPa South 2.6 km/h 8.7 km/h 67% 0.0 mm 0 W/m2
21:59 14.6 °C 8.8 °C 1019.9 hPa SSE 2.6 km/h 8.7 km/h 68% 0.0 mm 0 W/m2
22:02 14.6 °C 8.6 °C 1019.9 hPa SSE 3.5 km/h 6.1 km/h 67% 0.0 mm 0 W/m2
22:07 14.6 °C 8.6 °C 1020.2 hPa Calm   6.1 km/h 67% 0.0 mm 0 W/m2
22:12 14.6 °C 8.3 °C 1020.2 hPa SSE 1.1 km/h 6.1 km/h 66% 0.0 mm 0 W/m2
22:18 14.6 °C 8.6 °C 1020.2 hPa Calm   5.0 km/h 67% 0.0 mm 0 W/m2
22:23 14.6 °C 8.6 °C 1020.2 hPa Calm   2.6 km/h 67% 0.0 mm 0 W/m2
22:28 14.6 °C 8.6 °C 1019.9 hPa Calm     67% 0.0 mm 0 W/m2
22:33 14.5 °C 8.7 °C 1020.2 hPa Calm   1.1 km/h 68% 0.0 mm 0 W/m2
22:38 14.5 °C 8.7 °C 1019.9 hPa Calm   1.1 km/h 68% 0.0 mm 0 W/m2
22:43 14.4 °C 8.3 °C 1019.9 hPa Calm     67% 0.0 mm 0 W/m2
22:48 14.3 °C 8.5 °C 1019.9 hPa Calm     68% 0.0 mm 0 W/m2
22:53 14.3 °C 8.5 °C 1019.9 hPa Calm     68% 0.0 mm 0 W/m2
22:58 14.2 °C 8.4 °C 1019.9 hPa Calm     68% 0.0 mm 0 W/m2
23:03 14.1 °C 8.3 °C 1019.5 hPa Calm     68% 0.0 mm 0 W/m2
23:08 14.0 °C 8.2 °C 1019.9 hPa Calm   2.6 km/h 68% 0.0 mm 0 W/m2
23:13 14.1 °C 8.5 °C 1019.9 hPa Calm   2.6 km/h 69% 0.0 mm 0 W/m2
23:18 14.0 °C 8.6 °C 1019.5 hPa Calm   1.1 km/h 70% 0.0 mm 0 W/m2
23:23 13.9 °C 8.9 °C 1019.5 hPa Calm   1.1 km/h 72% 0.0 mm 0 W/m2
23:28 13.7 °C 8.9 °C 1019.9 hPa Calm   1.1 km/h 73% 0.0 mm 0 W/m2
23:33 13.6 °C 9.1 °C 1019.5 hPa Calm   2.6 km/h 74% 0.0 mm 0 W/m2
23:38 13.4 °C 9.1 °C 1019.9 hPa Calm   2.6 km/h 75% 0.0 mm 0 W/m2
23:43 13.3 °C 8.9 °C 1019.5 hPa Calm   1.1 km/h 75% 0.0 mm 0 W/m2
23:48 13.1 °C 8.9 °C 1019.5 hPa NNW 1.1 km/h 2.6 km/h 76% 0.0 mm 0 W/m2
23:53 13.0 °C 8.9 °C 1019.9 hPa NW 2.6 km/h 6.1 km/h 76% 0.0 mm 0 W/m2
23:58 12.7 °C 8.8 °C 1019.5 hPa NW 2.6 km/h 6.1 km/h 77% 0.0 mm 0 W/m2
Northern Hawkes Bay. New Zealand Historic Data
Compliments of Weather Underground - 2 mb